sensor_id;sensor_type;location;lat;lon;timestamp;pressure;altitude;pressure_sealevel;temperature;humidity
498;BME280;39559;48.630;9.162;2022-12-07T00:00:39;97493.69;;;2.36;100.00
498;BME280;39559;48.630;9.162;2022-12-07T00:03:04;97503.22;;;2.23;100.00
498;BME280;39559;48.630;9.162;2022-12-07T00:05:30;97507.59;;;2.10;100.00
498;BME280;39559;48.630;9.162;2022-12-07T00:07:55;97500.84;;;2.01;100.00
498;BME280;39559;48.630;9.162;2022-12-07T00:10:21;97503.47;;;1.89;100.00
498;BME280;39559;48.630;9.162;2022-12-07T00:12:46;97492.47;;;1.82;100.00
498;BME280;39559;48.630;9.162;2022-12-07T00:15:12;97501.63;;;2.08;100.00
498;BME280;39559;48.630;9.162;2022-12-07T00:19:49;97500.75;;;2.09;100.00
498;BME280;39559;48.630;9.162;2022-12-07T00:22:14;97506.72;;;2.13;100.00
498;BME280;39559;48.630;9.162;2022-12-07T00:24:40;97493.88;;;2.17;100.00
498;BME280;39559;48.630;9.162;2022-12-07T00:27:05;97497.28;;;2.18;100.00
498;BME280;39559;48.630;9.162;2022-12-07T00:29:31;97495.53;;;2.20;100.00
498;BME280;39559;48.630;9.162;2022-12-07T00:31:56;97500.63;;;2.24;100.00
498;BME280;39559;48.630;9.162;2022-12-07T00:34:22;97496.47;;;2.13;100.00
498;BME280;39559;48.630;9.162;2022-12-07T00:36:48;97497.34;;;2.10;100.00
498;BME280;39559;48.630;9.162;2022-12-07T00:39:14;97493.91;;;2.11;100.00
498;BME280;39559;48.630;9.162;2022-12-07T00:43:50;97499.84;;;2.18;100.00
498;BME280;39559;48.630;9.162;2022-12-07T00:46:17;97494.72;;;2.18;100.00
498;BME280;39559;48.630;9.162;2022-12-07T00:48:44;97498.94;;;2.23;100.00
498;BME280;39559;48.630;9.162;2022-12-07T00:51:11;97492.84;;;2.35;100.00
498;BME280;39559;48.630;9.162;2022-12-07T00:53:37;97483.56;;;2.23;100.00
498;BME280;39559;48.630;9.162;2022-12-07T00:58:50;97483.53;;;2.28;100.00
498;BME280;39559;48.630;9.162;2022-12-07T01:01:16;97482.69;;;2.27;100.00
498;BME280;39559;48.630;9.162;2022-12-07T01:03:42;97492.06;;;2.28;100.00
498;BME280;39559;48.630;9.162;2022-12-07T01:07:51;97481.81;;;2.28;100.00
498;BME280;39559;48.630;9.162;2022-12-07T01:10:16;97484.38;;;2.28;100.00
498;BME280;39559;48.630;9.162;2022-12-07T01:12:42;97482.63;;;2.30;100.00
498;BME280;39559;48.630;9.162;2022-12-07T01:15:08;97486.94;;;2.25;100.00
498;BME280;39559;48.630;9.162;2022-12-07T01:17:34;97489.50;;;2.25;100.00
498;BME280;39559;48.630;9.162;2022-12-07T01:20:00;97494.63;;;2.27;100.00
498;BME280;39559;48.630;9.162;2022-12-07T01:22:26;97492.94;;;2.24;100.00
498;BME280;39559;48.630;9.162;2022-12-07T01:24:52;97492.13;;;2.22;100.00
498;BME280;39559;48.630;9.162;2022-12-07T01:27:17;97503.19;;;2.24;100.00
498;BME280;39559;48.630;9.162;2022-12-07T01:31:51;97498.94;;;2.23;100.00
498;BME280;39559;48.630;9.162;2022-12-07T01:34:17;97500.56;;;2.30;100.00
498;BME280;39559;48.630;9.162;2022-12-07T01:36:42;97500.44;;;2.46;100.00
498;BME280;39559;48.630;9.162;2022-12-07T01:39:09;97507.44;;;2.28;100.00
498;BME280;39559;48.630;9.162;2022-12-07T01:41:38;97513.56;;;2.12;100.00
498;BME280;39559;48.630;9.162;2022-12-07T01:46:47;97504.97;;;2.18;100.00
498;BME280;39559;48.630;9.162;2022-12-07T01:49:16;97504.06;;;2.22;100.00
498;BME280;39559;48.630;9.162;2022-12-07T01:51:44;97502.38;;;2.22;100.00
498;BME280;39559;48.630;9.162;2022-12-07T01:55:53;97505.69;;;2.30;100.00
498;BME280;39559;48.630;9.162;2022-12-07T01:58:20;97506.59;;;2.25;100.00
498;BME280;39559;48.630;9.162;2022-12-07T02:00:46;97499.81;;;2.21;100.00
498;BME280;39559;48.630;9.162;2022-12-07T02:03:26;97507.50;;;2.24;100.00
498;BME280;39559;48.630;9.162;2022-12-07T02:05:53;97515.19;;;2.22;100.00
498;BME280;39559;48.630;9.162;2022-12-07T02:08:20;97510.00;;;2.25;100.00
498;BME280;39559;48.630;9.162;2022-12-07T02:10:45;97512.88;;;1.91;100.00
498;BME280;39559;48.630;9.162;2022-12-07T02:13:18;97519.63;;;2.00;100.00
498;BME280;39559;48.630;9.162;2022-12-07T02:28:14;97516.22;;;2.00;100.00
498;BME280;39559;48.630;9.162;2022-12-07T02:30:47;97517.88;;;2.05;100.00
498;BME280;39559;48.630;9.162;2022-12-07T02:33:21;97515.28;;;2.08;100.00
498;BME280;39559;48.630;9.162;2022-12-07T02:35:59;97514.63;;;1.83;100.00
498;BME280;39559;48.630;9.162;2022-12-07T02:38:26;97504.50;;;1.68;100.00
498;BME280;39559;48.630;9.162;2022-12-07T02:41:08;97505.34;;;1.68;100.00
498;BME280;39559;48.630;9.162;2022-12-07T02:43:57;97505.28;;;1.78;100.00
498;BME280;39559;48.630;9.162;2022-12-07T02:46:28;97503.41;;;2.00;100.00
498;BME280;39559;48.630;9.162;2022-12-07T02:48:55;97512.81;;;1.98;100.00
498;BME280;39559;48.630;9.162;2022-12-07T02:51:22;97503.56;;;1.78;100.00
498;BME280;39559;48.630;9.162;2022-12-07T02:53:47;97505.28;;;1.75;100.00
498;BME280;39559;48.630;9.162;2022-12-07T03:01:39;97496.00;;;1.66;100.00
498;BME280;39559;48.630;9.162;2022-12-07T03:08:36;97496.97;;;1.43;100.00
498;BME280;39559;48.630;9.162;2022-12-07T03:11:10;97485.06;;;1.38;100.00
498;BME280;39559;48.630;9.162;2022-12-07T03:13:54;97480.84;;;1.35;100.00
498;BME280;39559;48.630;9.162;2022-12-07T03:16:30;97485.97;;;1.29;100.00
498;BME280;39559;48.630;9.162;2022-12-07T03:19:15;97487.69;;;1.30;100.00
498;BME280;39559;48.630;9.162;2022-12-07T03:21:46;97482.50;;;1.39;100.00
498;BME280;39559;48.630;9.162;2022-12-07T03:24:18;97485.91;;;1.41;100.00
498;BME280;39559;48.630;9.162;2022-12-07T03:26:49;97482.44;;;1.53;100.00
498;BME280;39559;48.630;9.162;2022-12-07T03:32:05;97480.72;;;1.55;100.00
498;BME280;39559;48.630;9.162;2022-12-07T03:34:49;97480.78;;;1.41;100.00
498;BME280;39559;48.630;9.162;2022-12-07T03:37:38;97476.63;;;1.26;100.00
498;BME280;39559;48.630;9.162;2022-12-07T03:42:32;97474.84;;;1.39;100.00
498;BME280;39559;48.630;9.162;2022-12-07T03:44:59;97471.50;;;1.26;100.00
498;BME280;39559;48.630;9.162;2022-12-07T03:47:53;97479.22;;;1.19;100.00
498;BME280;39559;48.630;9.162;2022-12-07T03:50:54;97476.72;;;1.09;100.00
498;BME280;39559;48.630;9.162;2022-12-07T03:55:58;97480.84;;;1.29;100.00
498;BME280;39559;48.630;9.162;2022-12-07T03:58:24;97478.34;;;1.26;100.00
498;BME280;39559;48.630;9.162;2022-12-07T04:00:50;97475.75;;;1.30;100.00
498;BME280;39559;48.630;9.162;2022-12-07T04:03:17;97480.84;;;1.37;100.00
498;BME280;39559;48.630;9.162;2022-12-07T04:05:43;97474.06;;;1.29;100.00
498;BME280;39559;48.630;9.162;2022-12-07T04:08:09;97474.84;;;1.36;100.00
498;BME280;39559;48.630;9.162;2022-12-07T04:10:34;97477.38;;;1.42;100.00
498;BME280;39559;48.630;9.162;2022-12-07T04:13:00;97472.13;;;1.62;100.00
498;BME280;39559;48.630;9.162;2022-12-07T04:15:25;97473.22;;;1.26;100.00
498;BME280;39559;48.630;9.162;2022-12-07T04:19:58;97464.81;;;1.02;100.00
498;BME280;39559;48.630;9.162;2022-12-07T04:22:23;97461.28;;;1.25;100.00
498;BME280;39559;48.630;9.162;2022-12-07T04:24:49;97453.63;;;1.22;100.00
498;BME280;39559;48.630;9.162;2022-12-07T04:27:15;97457.94;;;1.07;100.00
498;BME280;39559;48.630;9.162;2022-12-07T04:29:40;97462.22;;;1.05;100.00
498;BME280;39559;48.630;9.162;2022-12-07T04:32:06;97458.06;;;0.89;100.00
498;BME280;39559;48.630;9.162;2022-12-07T04:34:31;97458.09;;;0.83;100.00
498;BME280;39559;48.630;9.162;2022-12-07T04:36:57;97474.28;;;0.82;100.00
498;BME280;39559;48.630;9.162;2022-12-07T04:39:25;97466.56;;;0.91;100.00
498;BME280;39559;48.630;9.162;2022-12-07T04:44:03;97465.72;;;0.93;100.00
498;BME280;39559;48.630;9.162;2022-12-07T04:46:32;97464.84;;;0.98;100.00
498;BME280;39559;48.630;9.162;2022-12-07T04:48:58;97464.81;;;1.04;100.00
498;BME280;39559;48.630;9.162;2022-12-07T04:51:28;97464.78;;;1.11;100.00
498;BME280;39559;48.630;9.162;2022-12-07T04:53:55;97463.06;;;1.07;100.00
498;BME280;39559;48.630;9.162;2022-12-07T04:56:21;97458.88;;;0.94;100.00
498;BME280;39559;48.630;9.162;2022-12-07T04:58:48;97452.94;;;0.87;100.00
498;BME280;39559;48.630;9.162;2022-12-07T05:01:15;97460.66;;;0.86;100.00
498;BME280;39559;48.630;9.162;2022-12-07T05:03:41;97458.94;;;0.86;100.00
498;BME280;39559;48.630;9.162;2022-12-07T05:08:00;97453.81;;;0.83;100.00
498;BME280;39559;48.630;9.162;2022-12-07T05:10:25;97456.38;;;0.82;100.00
498;BME280;39559;48.630;9.162;2022-12-07T05:12:51;97452.09;;;0.90;100.00
498;BME280;39559;48.630;9.162;2022-12-07T05:15:16;97450.38;;;0.93;100.00
498;BME280;39559;48.630;9.162;2022-12-07T05:17:42;97455.50;;;0.90;100.00
498;BME280;39559;48.630;9.162;2022-12-07T05:20:08;97454.75;;;0.64;100.00
498;BME280;39559;48.630;9.162;2022-12-07T05:22:34;97451.41;;;0.43;100.00
498;BME280;39559;48.630;9.162;2022-12-07T05:24:59;97441.22;;;0.38;100.00
498;BME280;39559;48.630;9.162;2022-12-07T05:27:25;97432.78;;;0.15;100.00
498;BME280;39559;48.630;9.162;2022-12-07T05:32:01;97428.44;;;0.32;100.00
498;BME280;39559;48.630;9.162;2022-12-07T05:34:26;97421.63;;;0.41;100.00
498;BME280;39559;48.630;9.162;2022-12-07T05:36:51;97429.25;;;0.45;100.00
498;BME280;39559;48.630;9.162;2022-12-07T05:39:17;97430.06;;;0.61;100.00
498;BME280;39559;48.630;9.162;2022-12-07T05:41:43;97418.09;;;0.72;100.00
498;BME280;39559;48.630;9.162;2022-12-07T05:44:26;97423.97;;;0.88;100.00
498;BME280;39559;48.630;9.162;2022-12-07T05:46:52;97427.47;;;0.76;100.00
498;BME280;39559;48.630;9.162;2022-12-07T05:49:17;97426.75;;;0.39;100.00
498;BME280;39559;48.630;9.162;2022-12-07T05:51:43;97431.84;;;0.39;100.00
498;BME280;39559;48.630;9.162;2022-12-07T05:56:02;97430.13;;;0.46;100.00
498;BME280;39559;48.630;9.162;2022-12-07T05:58:27;97435.25;;;0.44;100.00
498;BME280;39559;48.630;9.162;2022-12-07T06:01:11;97440.25;;;0.67;100.00
498;BME280;39559;48.630;9.162;2022-12-07T06:03:37;97442.88;;;0.49;100.00
498;BME280;39559;48.630;9.162;2022-12-07T06:06:02;97442.06;;;0.37;100.00
498;BME280;39559;48.630;9.162;2022-12-07T06:08:28;97444.66;;;0.17;100.00
498;BME280;39559;48.630;9.162;2022-12-07T06:10:53;97453.16;;;0.27;100.00
498;BME280;39559;48.630;9.162;2022-12-07T06:13:39;97454.88;;;0.30;100.00
498;BME280;39559;48.630;9.162;2022-12-07T06:16:05;97452.38;;;0.01;100.00
498;BME280;39559;48.630;9.162;2022-12-07T06:20:03;97456.63;;;-0.20;100.00
498;BME280;39559;48.630;9.162;2022-12-07T06:22:29;97454.06;;;-0.09;100.00
498;BME280;39559;48.630;9.162;2022-12-07T06:24:55;97457.47;;;-0.09;100.00
498;BME280;39559;48.630;9.162;2022-12-07T06:27:20;97471.91;;;-0.63;100.00
498;BME280;39559;48.630;9.162;2022-12-07T06:29:46;97465.09;;;-0.78;100.00
498;BME280;39559;48.630;9.162;2022-12-07T06:32:11;97459.16;;;-0.72;100.00
498;BME280;39559;48.630;9.162;2022-12-07T06:34:37;97470.19;;;-0.73;100.00
498;BME280;39559;48.630;9.162;2022-12-07T06:37:03;97469.38;;;-0.71;100.00
498;BME280;39559;48.630;9.162;2022-12-07T06:39:29;97474.47;;;-0.72;100.00
498;BME280;39559;48.630;9.162;2022-12-07T06:44:05;97481.28;;;-0.59;100.00
498;BME280;39559;48.630;9.162;2022-12-07T06:46:31;97478.72;;;-0.57;100.00
498;BME280;39559;48.630;9.162;2022-12-07T06:48:57;97474.47;;;-0.46;100.00
498;BME280;39559;48.630;9.162;2022-12-07T06:51:22;97470.25;;;-0.21;100.00
498;BME280;39559;48.630;9.162;2022-12-07T06:53:48;97479.59;;;-0.39;100.00
498;BME280;39559;48.630;9.162;2022-12-07T06:56:14;97494.91;;;-0.43;100.00
498;BME280;39559;48.630;9.162;2022-12-07T06:58:40;97498.28;;;-0.35;100.00
498;BME280;39559;48.630;9.162;2022-12-07T07:01:17;97509.34;;;-0.64;100.00
498;BME280;39559;48.630;9.162;2022-12-07T07:03:44;97501.66;;;-0.74;100.00
498;BME280;39559;48.630;9.162;2022-12-07T07:08:06;97495.59;;;-1.07;100.00
498;BME280;39559;48.630;9.162;2022-12-07T07:10:31;97491.38;;;-0.93;100.00
498;BME280;39559;48.630;9.162;2022-12-07T07:12:57;97493.16;;;-0.67;100.00
498;BME280;39559;48.630;9.162;2022-12-07T07:15:22;97494.88;;;-0.65;100.00
498;BME280;39559;48.630;9.162;2022-12-07T07:17:48;97479.56;;;-0.71;100.00
498;BME280;39559;48.630;9.162;2022-12-07T07:20:13;97488.06;;;-0.70;100.00
498;BME280;39559;48.630;9.162;2022-12-07T07:22:39;97486.34;;;-0.76;100.00
498;BME280;39559;48.630;9.162;2022-12-07T07:25:05;97482.09;;;-0.74;100.00
498;BME280;39559;48.630;9.162;2022-12-07T07:27:31;97471.91;;;-0.71;100.00
498;BME280;39559;48.630;9.162;2022-12-07T07:32:06;97475.34;;;-0.29;100.00
498;BME280;39559;48.630;9.162;2022-12-07T07:34:33;97486.41;;;-0.16;100.00
498;BME280;39559;48.630;9.162;2022-12-07T07:36:59;97487.25;;;-0.06;100.00
498;BME280;39559;48.630;9.162;2022-12-07T07:39:25;97483.00;;;-0.21;100.00
498;BME280;39559;48.630;9.162;2022-12-07T07:41:50;97484.69;;;0.14;100.00
498;BME280;39559;48.630;9.162;2022-12-07T07:44:16;97486.41;;;-0.10;100.00
498;BME280;39559;48.630;9.162;2022-12-07T07:46:41;97489.81;;;-0.23;100.00
498;BME280;39559;48.630;9.162;2022-12-07T07:49:09;97488.97;;;-0.14;100.00
498;BME280;39559;48.630;9.162;2022-12-07T07:51:35;97496.63;;;-0.16;100.00
498;BME280;39559;48.630;9.162;2022-12-07T07:56:08;97505.94;;;0.30;100.00
498;BME280;39559;48.630;9.162;2022-12-07T07:58:33;97504.28;;;0.06;100.00
498;BME280;39559;48.630;9.162;2022-12-07T08:01:06;97508.50;;;0.21;100.00
498;BME280;39559;48.630;9.162;2022-12-07T08:03:32;97508.53;;;0.13;100.00
498;BME280;39559;48.630;9.162;2022-12-07T08:05:57;97512.75;;;0.26;100.00
498;BME280;39559;48.630;9.162;2022-12-07T08:08:23;97509.31;;;0.44;100.00
498;BME280;39559;48.630;9.162;2022-12-07T08:10:48;97506.78;;;0.40;100.00
498;BME280;39559;48.630;9.162;2022-12-07T08:13:17;97505.97;;;0.19;100.00
498;BME280;39559;48.630;9.162;2022-12-07T08:15:44;97508.50;;;0.25;100.00
498;BME280;39559;48.630;9.162;2022-12-07T08:20:09;97509.31;;;0.49;100.00
498;BME280;39559;48.630;9.162;2022-12-07T08:22:35;97513.53;;;0.56;100.00
498;BME280;39559;48.630;9.162;2022-12-07T08:25:00;97510.13;;;0.68;100.00
498;BME280;39559;48.630;9.162;2022-12-07T08:27:26;97516.88;;;0.78;100.00
498;BME280;39559;48.630;9.162;2022-12-07T08:29:52;97520.28;;;0.88;100.00
498;BME280;39559;48.630;9.162;2022-12-07T08:32:18;97521.13;;;0.90;100.00
498;BME280;39559;48.630;9.162;2022-12-07T08:34:43;97516.00;;;0.93;100.00
498;BME280;39559;48.630;9.162;2022-12-07T08:37:09;97511.69;;;1.03;100.00
498;BME280;39559;48.630;9.162;2022-12-07T08:39:35;97516.84;;;0.95;100.00
498;BME280;39559;48.630;9.162;2022-12-07T08:44:10;97515.94;;;1.08;100.00
498;BME280;39559;48.630;9.162;2022-12-07T08:46:47;97524.47;;;1.06;100.00
498;BME280;39559;48.630;9.162;2022-12-07T08:49:22;97522.72;;;1.14;100.00
498;BME280;39559;48.630;9.162;2022-12-07T08:51:50;97518.47;;;1.08;100.00
498;BME280;39559;48.630;9.162;2022-12-07T08:54:17;97512.50;;;1.14;100.00
498;BME280;39559;48.630;9.162;2022-12-07T08:56:44;97515.88;;;1.16;100.00
498;BME280;39559;48.630;9.162;2022-12-07T08:59:13;97520.06;;;1.32;100.00
498;BME280;39559;48.630;9.162;2022-12-07T09:01:40;97519.19;;;1.40;100.00
498;BME280;39559;48.630;9.162;2022-12-07T09:04:05;97520.88;;;1.39;100.00
498;BME280;39559;48.630;9.162;2022-12-07T09:08:10;97520.00;;;1.46;100.00
498;BME280;39559;48.630;9.162;2022-12-07T09:10:36;97514.78;;;1.62;100.00
498;BME280;39559;48.630;9.162;2022-12-07T09:13:01;97516.47;;;1.63;100.00
498;BME280;39559;48.630;9.162;2022-12-07T09:15:28;97514.75;;;1.66;100.00
498;BME280;39559;48.630;9.162;2022-12-07T09:17:54;97513.72;;;1.89;100.00
498;BME280;39559;48.630;9.162;2022-12-07T09:20:19;97520.47;;;2.04;100.00
498;BME280;39559;48.630;9.162;2022-12-07T09:22:45;97513.38;;;2.29;100.00
498;BME280;39559;48.630;9.162;2022-12-07T09:25:10;97517.56;;;2.39;100.00
498;BME280;39559;48.630;9.162;2022-12-07T09:27:36;97519.50;;;2.17;100.00
498;BME280;39559;48.630;9.162;2022-12-07T09:32:13;97522.28;;;1.86;100.00
498;BME280;39559;48.630;9.162;2022-12-07T09:34:38;97521.47;;;1.78;100.00
498;BME280;39559;48.630;9.162;2022-12-07T09:37:04;97519.72;;;1.88;100.00
498;BME280;39559;48.630;9.162;2022-12-07T09:39:29;97516.25;;;1.97;100.00
498;BME280;39559;48.630;9.162;2022-12-07T09:41:57;97503.25;;;2.18;100.00
498;BME280;39559;48.630;9.162;2022-12-07T09:44:26;97511.97;;;1.97;100.00
498;BME280;39559;48.630;9.162;2022-12-07T09:46:53;97511.91;;;2.02;100.00
498;BME280;39559;48.630;9.162;2022-12-07T09:49:23;97512.72;;;2.07;100.00
498;BME280;39559;48.630;9.162;2022-12-07T09:56:16;97489.56;;;2.21;100.00
498;BME280;39559;48.630;9.162;2022-12-07T09:58:43;97492.88;;;2.30;100.00
498;BME280;39559;48.630;9.162;2022-12-07T10:03:37;97488.25;;;2.65;100.00
498;BME280;39559;48.630;9.162;2022-12-07T10:06:04;97495.22;;;2.55;100.00
498;BME280;39559;48.630;9.162;2022-12-07T10:08:31;97488.03;;;2.85;100.00
498;BME280;39559;48.630;9.162;2022-12-07T10:10:58;97485.69;;;2.66;100.00
498;BME280;39559;48.630;9.162;2022-12-07T10:13:40;97488.91;;;2.84;100.00
498;BME280;39559;48.630;9.162;2022-12-07T10:20:22;97479.66;;;2.71;100.00
498;BME280;39559;48.630;9.162;2022-12-07T10:25:26;97476.84;;;2.92;100.00
498;BME280;39559;48.630;9.162;2022-12-07T10:28:16;97464.78;;;3.00;100.00
498;BME280;39559;48.630;9.162;2022-12-07T10:30:52;97470.72;;;3.02;100.00
498;BME280;39559;48.630;9.162;2022-12-07T10:33:35;97470.22;;;2.73;100.00
498;BME280;39559;48.630;9.162;2022-12-07T10:38:45;97463.59;;;3.23;100.00
498;BME280;39559;48.630;9.162;2022-12-07T10:41:11;97464.44;;;3.23;100.00
498;BME280;39559;48.630;9.162;2022-12-07T10:44:21;97466.91;;;2.63;100.00
498;BME280;39559;48.630;9.162;2022-12-07T10:57:43;97450.25;;;2.98;100.00
498;BME280;39559;48.630;9.162;2022-12-07T11:00:21;97440.09;;;2.90;100.00
498;BME280;39559;48.630;9.162;2022-12-07T11:02:57;97441.63;;;3.03;100.00
498;BME280;39559;48.630;9.162;2022-12-07T11:13:43;97428.38;;;3.34;100.00
498;BME280;39559;48.630;9.162;2022-12-07T11:16:21;97434.66;;;3.13;100.00
498;BME280;39559;48.630;9.162;2022-12-07T11:24:17;97421.78;;;3.16;100.00
498;BME280;39559;48.630;9.162;2022-12-07T11:27:07;97421.56;;;3.32;100.00
498;BME280;39559;48.630;9.162;2022-12-07T11:35:30;97408.38;;;2.97;100.00
498;BME280;39559;48.630;9.162;2022-12-07T11:38:12;97402.25;;;3.07;100.00
498;BME280;39559;48.630;9.162;2022-12-07T11:40:40;97397.56;;;3.34;100.00
498;BME280;39559;48.630;9.162;2022-12-07T11:43:27;97401.34;;;3.12;100.00
498;BME280;39559;48.630;9.162;2022-12-07T11:45:59;97395.66;;;2.91;100.00
498;BME280;39559;48.630;9.162;2022-12-07T11:48:38;97390.31;;;3.03;100.00
498;BME280;39559;48.630;9.162;2022-12-07T11:51:09;97379.84;;;3.19;100.00
498;BME280;39559;48.630;9.162;2022-12-07T11:56:21;97377.47;;;3.61;100.00
498;BME280;39559;48.630;9.162;2022-12-07T11:58:57;97382.63;;;3.61;100.00
498;BME280;39559;48.630;9.162;2022-12-07T12:01:44;97378.88;;;3.79;100.00
498;BME280;39559;48.630;9.162;2022-12-07T12:04:27;97376.41;;;3.73;100.00
498;BME280;39559;48.630;9.162;2022-12-07T12:06:54;97374.59;;;3.79;100.00
498;BME280;39559;48.630;9.162;2022-12-07T12:09:44;97366.09;;;3.74;100.00
498;BME280;39559;48.630;9.162;2022-12-07T12:12:50;97374.78;;;3.67;100.00
498;BME280;39559;48.630;9.162;2022-12-07T12:16:01;97370.53;;;3.68;100.00
498;BME280;39559;48.630;9.162;2022-12-07T12:25:28;97363.13;;;3.99;100.00
498;BME280;39559;48.630;9.162;2022-12-07T12:27:58;97363.59;;;4.18;100.00
498;BME280;39559;48.630;9.162;2022-12-07T12:30:36;97359.91;;;3.88;100.00
498;BME280;39559;48.630;9.162;2022-12-07T12:33:26;97356.41;;;3.92;100.00
498;BME280;39559;48.630;9.162;2022-12-07T12:46:54;97356.44;;;3.89;100.00
498;BME280;39559;48.630;9.162;2022-12-07T12:51:56;97342.09;;;3.78;100.00
498;BME280;39559;48.630;9.162;2022-12-07T12:54:29;97347.47;;;3.64;100.00
498;BME280;39559;48.630;9.162;2022-12-07T12:57:18;97350.00;;;3.66;100.00
498;BME280;39559;48.630;9.162;2022-12-07T13:08:24;97328.03;;;3.96;100.00
498;BME280;39559;48.630;9.162;2022-12-07T13:10:50;97330.66;;;3.95;100.00
498;BME280;39559;48.630;9.162;2022-12-07T13:15:49;97323.03;;;3.90;100.00
498;BME280;39559;48.630;9.162;2022-12-07T13:20:59;97320.00;;;3.68;100.00
498;BME280;39559;48.630;9.162;2022-12-07T13:23:52;97317.59;;;3.59;100.00
498;BME280;39559;48.630;9.162;2022-12-07T13:26:23;97314.09;;;3.63;100.00
498;BME280;39559;48.630;9.162;2022-12-07T13:29:16;97310.56;;;3.70;100.00
498;BME280;39559;48.630;9.162;2022-12-07T13:32:25;97308.97;;;3.63;100.00
498;BME280;39559;48.630;9.162;2022-12-07T13:34:51;97313.06;;;3.73;100.00
498;BME280;39559;48.630;9.162;2022-12-07T13:37:27;97314.31;;;3.97;100.00
498;BME280;39559;48.630;9.162;2022-12-07T13:39:55;97310.91;;;3.97;100.00
498;BME280;39559;48.630;9.162;2022-12-07T13:42:31;97304.97;;;3.95;100.00
498;BME280;39559;48.630;9.162;2022-12-07T13:44:59;97303.41;;;3.86;100.00
498;BME280;39559;48.630;9.162;2022-12-07T13:47:45;97302.63;;;3.82;100.00
498;BME280;39559;48.630;9.162;2022-12-07T13:50:30;97310.56;;;3.70;100.00
498;BME280;39559;48.630;9.162;2022-12-07T13:52:58;97308.91;;;3.66;100.00
498;BME280;39559;48.630;9.162;2022-12-07T13:56:28;97298.84;;;3.54;100.00
498;BME280;39559;48.630;9.162;2022-12-07T13:58:57;97303.91;;;3.58;100.00
498;BME280;39559;48.630;9.162;2022-12-07T14:01:24;97305.56;;;3.61;100.00
498;BME280;39559;48.630;9.162;2022-12-07T14:03:50;97312.56;;;3.53;100.00
498;BME280;39559;48.630;9.162;2022-12-07T14:06:26;97309.28;;;3.44;100.00
498;BME280;39559;48.630;9.162;2022-12-07T14:09:25;97300.63;;;3.50;100.00
498;BME280;39559;48.630;9.162;2022-12-07T14:11:53;97302.38;;;3.50;100.00
498;BME280;39559;48.630;9.162;2022-12-07T14:14:22;97312.00;;;3.35;100.00
498;BME280;39559;48.630;9.162;2022-12-07T14:17:01;97311.03;;;3.42;100.00
498;BME280;39559;48.630;9.162;2022-12-07T14:20:38;97302.59;;;3.36;100.00
498;BME280;39559;48.630;9.162;2022-12-07T14:23:05;97304.25;;;3.38;100.00
498;BME280;39559;48.630;9.162;2022-12-07T14:25:47;97303.25;;;3.47;100.00
498;BME280;39559;48.630;9.162;2022-12-07T14:28:29;97299.25;;;3.31;100.00
498;BME280;39559;48.630;9.162;2022-12-07T14:30:56;97300.13;;;3.31;100.00
498;BME280;39559;48.630;9.162;2022-12-07T14:33:23;97301.91;;;3.24;100.00
498;BME280;39559;48.630;9.162;2022-12-07T14:35:49;97298.59;;;3.19;100.00
498;BME280;39559;48.630;9.162;2022-12-07T14:38:14;97304.56;;;3.20;100.00
498;BME280;39559;48.630;9.162;2022-12-07T14:40:40;97303.72;;;3.19;100.00
498;BME280;39559;48.630;9.162;2022-12-07T14:44:24;97311.56;;;3.08;100.00
498;BME280;39559;48.630;9.162;2022-12-07T14:46:50;97312.19;;;3.24;100.00
498;BME280;39559;48.630;9.162;2022-12-07T14:49:16;97305.66;;;3.05;100.00
498;BME280;39559;48.630;9.162;2022-12-07T14:51:42;97309.03;;;3.07;100.00
498;BME280;39559;48.630;9.162;2022-12-07T14:54:19;97311.00;;;2.91;100.00
498;BME280;39559;48.630;9.162;2022-12-07T14:56:46;97318.78;;;2.83;100.00
498;BME280;39559;48.630;9.162;2022-12-07T14:59:17;97308.31;;;3.00;100.00
498;BME280;39559;48.630;9.162;2022-12-07T15:01:44;97312.56;;;3.00;100.00
498;BME280;39559;48.630;9.162;2022-12-07T15:04:10;97308.22;;;3.05;100.00
498;BME280;39559;48.630;9.162;2022-12-07T15:08:24;97309.44;;;2.79;100.00
498;BME280;39559;48.630;9.162;2022-12-07T15:10:50;97317.78;;;2.94;100.00
498;BME280;39559;48.630;9.162;2022-12-07T15:13:15;97316.91;;;2.95;100.00
498;BME280;39559;48.630;9.162;2022-12-07T15:15:59;97313.47;;;2.96;100.00
498;BME280;39559;48.630;9.162;2022-12-07T15:18:25;97319.44;;;2.96;100.00
498;BME280;39559;48.630;9.162;2022-12-07T15:20:51;97320.63;;;2.77;100.00
498;BME280;39559;48.630;9.162;2022-12-07T15:23:17;97320.66;;;2.72;100.00
498;BME280;39559;48.630;9.162;2022-12-07T15:25:47;97307.06;;;2.65;100.00
498;BME280;39559;48.630;9.162;2022-12-07T15:28:13;97304.59;;;2.61;100.00
498;BME280;39559;48.630;9.162;2022-12-07T15:32:24;97294.88;;;2.83;100.00
498;BME280;39559;48.630;9.162;2022-12-07T15:34:50;97293.28;;;2.73;100.00
498;BME280;39559;48.630;9.162;2022-12-07T15:37:16;97295.91;;;2.71;100.00
498;BME280;39559;48.630;9.162;2022-12-07T15:39:41;97307.00;;;2.72;100.00
498;BME280;39559;48.630;9.162;2022-12-07T15:42:07;97302.81;;;2.67;100.00
498;BME280;39559;48.630;9.162;2022-12-07T15:44:33;97297.72;;;2.64;100.00
498;BME280;39559;48.630;9.162;2022-12-07T15:47:17;97303.91;;;2.49;100.00
498;BME280;39559;48.630;9.162;2022-12-07T15:49:42;97308.97;;;2.53;100.00
498;BME280;39559;48.630;9.162;2022-12-07T15:52:08;97295.34;;;2.49;100.00
498;BME280;39559;48.630;9.162;2022-12-07T15:56:25;97300.34;;;2.58;100.00
498;BME280;39559;48.630;9.162;2022-12-07T15:58:51;97291.09;;;2.49;100.00
498;BME280;39559;48.630;9.162;2022-12-07T16:01:18;97298.78;;;2.48;100.00
498;BME280;39559;48.630;9.162;2022-12-07T16:03:44;97303.25;;;2.34;100.00
498;BME280;39559;48.630;9.162;2022-12-07T16:06:10;97299.09;;;2.23;100.00
498;BME280;39559;48.630;9.162;2022-12-07T16:08:36;97294.88;;;2.18;100.00
498;BME280;39559;48.630;9.162;2022-12-07T16:11:05;97295.78;;;2.15;100.00
498;BME280;39559;48.630;9.162;2022-12-07T16:13:32;97298.25;;;2.23;100.00
498;BME280;39559;48.630;9.162;2022-12-07T16:15:57;97288.00;;;2.24;100.00
498;BME280;39559;48.630;9.162;2022-12-07T16:20:25;97290.84;;;2.00;100.00